createdAt,value
2023-04-26T00:01:11.578Z,13.91
2023-04-26T00:06:08.995Z,13.88
2023-04-26T00:11:02.119Z,13.78
2023-04-26T00:15:55.344Z,13.91
2023-04-26T00:20:48.609Z,13.60
2023-04-26T00:25:43.107Z,13.78
2023-04-26T00:30:37.775Z,13.52
2023-04-26T00:35:31.148Z,13.70
2023-04-26T00:40:24.224Z,13.61
2023-04-26T00:45:18.982Z,13.56
2023-04-26T00:50:15.237Z,13.62
2023-04-26T00:55:09.445Z,13.63
2023-04-26T01:00:02.620Z,13.71
2023-04-26T01:04:57.134Z,13.73
2023-04-26T01:09:50.959Z,13.70
2023-04-26T01:14:45.102Z,13.66
2023-04-26T01:19:38.327Z,13.63
2023-04-26T01:24:36.714Z,13.60
2023-04-26T01:29:30.480Z,13.57
2023-04-26T01:34:23.552Z,13.12
2023-04-26T01:39:16.906Z,13.20
2023-04-26T01:44:11.408Z,13.41
2023-04-26T01:49:04.678Z,13.24
2023-04-26T01:53:58.009Z,13.33
2023-04-26T01:58:51.625Z,13.06
2023-04-26T02:03:46.384Z,13.27
2023-04-26T02:08:39.674Z,13.29
2023-04-26T02:13:32.890Z,13.14
2023-04-26T02:18:26.902Z,13.17
2023-04-26T02:23:21.340Z,12.88
2023-04-26T02:28:14.576Z,13.21
2023-04-26T02:33:08.751Z,12.51
2023-04-26T02:38:02.314Z,13.04
2023-04-26T02:42:57.016Z,13.05
2023-04-26T02:47:50.496Z,13.37
2023-04-26T02:52:43.685Z,13.22
2023-04-26T02:57:37.005Z,13.26
2023-04-26T03:02:34.679Z,13.20
2023-04-26T03:07:28.449Z,13.00
2023-04-26T03:12:21.580Z,13.31
2023-04-26T03:17:14.802Z,13.29
2023-04-26T03:22:09.372Z,13.28
2023-04-26T03:27:02.708Z,13.20
2023-04-26T03:31:56.118Z,13.26
2023-04-26T03:36:49.315Z,13.25
2023-04-26T03:41:44.018Z,13.06
2023-04-26T03:46:39.252Z,13.08
2023-04-26T03:51:32.459Z,13.18
2023-04-26T03:56:25.829Z,13.11
2023-04-26T04:01:21.205Z,13.05
2023-04-26T04:06:14.395Z,13.16
2023-04-26T04:11:09.494Z,13.09
2023-04-26T04:16:05.002Z,12.59
2023-04-26T04:20:59.883Z,13.38
2023-04-26T04:25:53.135Z,13.38
2023-04-26T04:30:47.427Z,13.58
2023-04-26T04:35:43.483Z,13.68
2023-04-26T04:40:38.577Z,13.79
2023-04-26T04:45:31.829Z,13.61
2023-04-26T04:50:26.707Z,13.68
2023-04-26T04:55:20.156Z,13.88
2023-04-26T05:00:16.037Z,13.73
2023-04-26T05:05:16.923Z,14.01
2023-04-26T05:10:11.213Z,13.79
2023-04-26T05:15:04.938Z,13.58
2023-04-26T05:20:06.515Z,13.23
2023-04-26T05:25:00.144Z,13.55
2023-04-26T05:29:53.277Z,13.68
2023-04-26T05:35:07.164Z,13.71
2023-04-26T05:40:00.626Z,13.81
2023-04-26T05:44:58.726Z,14.13
2023-04-26T05:49:51.895Z,13.79
2023-04-26T05:54:46.589Z,13.45
2023-04-26T05:59:39.979Z,14.70
2023-04-26T06:04:34.539Z,14.87
2023-04-26T06:09:34.531Z,14.98
2023-04-26T06:14:30.415Z,14.78
2023-04-26T06:19:29.176Z,15.03
2023-04-26T06:24:22.711Z,15.03
2023-04-26T06:29:19.463Z,15.37
2023-04-26T06:34:14.565Z,15.44
2023-04-26T06:39:08.241Z,15.43
2023-04-26T06:44:01.704Z,15.46
2023-04-26T06:48:57.646Z,15.65
2023-04-26T06:53:53.689Z,15.25
2023-04-26T06:59:00.964Z,15.72
2023-04-26T07:03:54.300Z,15.41
2023-04-26T07:08:47.808Z,15.87
2023-04-26T07:13:42.604Z,16.04
2023-04-26T07:18:36.152Z,16.07
2023-04-26T07:23:31.211Z,16.12
2023-04-26T07:28:24.589Z,16.55
2023-04-26T07:33:19.275Z,16.70
2023-04-26T07:38:14.683Z,16.19
2023-04-26T07:43:07.901Z,16.65
2023-04-26T07:48:01.334Z,16.86
2023-04-26T07:52:56.009Z,16.51
2023-04-26T07:57:49.195Z,17.02
2023-04-26T08:02:44.633Z,17.48
2023-04-26T08:07:38.057Z,17.64
2023-04-26T08:12:37.659Z,17.12
2023-04-26T08:17:31.499Z,18.10
2023-04-26T08:22:24.778Z,17.59
2023-04-26T08:27:23.765Z,18.36
2023-04-26T08:32:18.546Z,18.82
2023-04-26T08:37:12.475Z,20.70
2023-04-26T08:42:09.025Z,21.39
2023-04-26T08:47:09.927Z,21.83
2023-04-26T08:52:05.972Z,21.21
2023-04-26T08:57:00.889Z,21.69
2023-04-26T09:01:55.037Z,21.86
2023-04-26T09:06:51.019Z,22.57
2023-04-26T09:11:56.778Z,22.43
2023-04-26T09:16:52.165Z,21.89
2023-04-26T09:21:50.532Z,21.66
2023-04-26T09:26:43.869Z,22.18
2023-04-26T09:31:42.222Z,22.00
2023-04-26T09:36:51.680Z,22.40
2023-04-26T09:41:45.863Z,22.03
2023-04-26T09:46:40.850Z,21.83
2023-04-26T09:51:34.154Z,21.52
2023-04-26T09:56:27.397Z,20.71
2023-04-26T10:01:23.540Z,21.60
2023-04-26T10:06:21.600Z,20.95
2023-04-26T10:11:15.609Z,21.39
2023-04-26T10:16:11.001Z,22.04
2023-04-26T10:21:11.831Z,22.28
2023-04-26T10:26:07.721Z,21.48
2023-04-26T10:31:01.669Z,21.05
2023-04-26T10:36:09.276Z,21.30
2023-04-26T10:41:36.176Z,22.03
2023-04-26T10:46:40.959Z,22.68
2023-04-26T10:51:35.578Z,23.21
2023-04-26T10:56:55.283Z,23.76
2023-04-26T11:01:48.569Z,23.84
2023-04-26T11:06:52.398Z,23.86
2023-04-26T11:11:54.935Z,23.44
2023-04-26T11:16:48.371Z,23.26
2023-04-26T11:21:42.013Z,22.91
2023-04-26T11:26:39.815Z,22.71
2023-04-26T11:31:36.599Z,22.80
2023-04-26T11:36:30.130Z,24.19
2023-04-26T11:41:29.028Z,24.38
2023-04-26T11:46:24.079Z,24.71
2023-04-26T11:51:19.274Z,26.16
2023-04-26T11:56:17.300Z,26.72
2023-04-26T12:01:10.612Z,26.36
2023-04-26T12:06:06.632Z,26.80
2023-04-26T12:11:04.678Z,27.24
2023-04-26T12:16:26.160Z,28.17
2023-04-26T12:21:21.120Z,28.87
2023-04-26T12:26:16.614Z,28.75
2023-04-26T12:31:11.952Z,29.55
2023-04-26T12:36:12.686Z,30.58
2023-04-26T12:41:13.123Z,30.57
2023-04-26T12:46:07.916Z,30.70
2023-04-26T12:51:01.514Z,29.21
2023-04-26T12:55:57.064Z,26.79
2023-04-26T13:00:51.335Z,26.74
2023-04-26T13:05:46.442Z,26.61
2023-04-26T13:10:40.194Z,26.10
2023-04-26T13:15:33.620Z,26.53
2023-04-26T13:20:28.946Z,27.33
2023-04-26T13:25:24.954Z,27.60
2023-04-26T13:30:18.246Z,27.34
2023-04-26T13:35:15.408Z,26.02
2023-04-26T13:40:11.405Z,24.42
2023-04-26T13:45:09.572Z,24.23
2023-04-26T13:50:03.089Z,23.43
2023-04-26T13:54:56.416Z,22.57
2023-04-26T13:59:49.680Z,22.61
2023-04-26T14:04:44.618Z,22.13
2023-04-26T14:09:38.145Z,22.06
2023-04-26T14:14:31.268Z,22.57
2023-04-26T14:19:26.248Z,22.34
2023-04-26T14:24:23.512Z,23.42
2023-04-26T14:29:16.797Z,24.54
2023-04-26T14:34:09.947Z,24.83
2023-04-26T14:39:03.176Z,24.38
2023-04-26T14:43:57.705Z,23.57
2023-04-26T14:48:50.869Z,22.76
2023-04-26T14:53:44.041Z,22.39
2023-04-26T14:58:37.180Z,21.63
2023-04-26T15:03:34.736Z,20.87
2023-04-26T15:08:28.025Z,20.60
2023-04-26T15:13:21.100Z,19.96
2023-04-26T15:18:14.412Z,19.26
2023-04-26T15:23:09.043Z,18.85
2023-04-26T15:28:02.244Z,18.38
2023-04-26T15:32:55.352Z,17.96
2023-04-26T15:37:49.655Z,17.60
2023-04-26T15:42:44.269Z,17.22
2023-04-26T15:47:38.049Z,17.22
2023-04-26T15:52:31.208Z,16.87
2023-04-26T15:57:24.590Z,16.00
2023-04-26T16:02:19.235Z,16.77
2023-04-26T16:07:12.375Z,16.77
2023-04-26T16:12:06.149Z,16.68
2023-04-26T16:17:00.004Z,15.84
2023-04-26T16:21:54.558Z,16.46
2023-04-26T16:26:53.222Z,16.08
2023-04-26T16:31:46.401Z,16.28
2023-04-26T16:36:39.765Z,16.12
2023-04-26T16:41:34.631Z,16.22
2023-04-26T16:46:28.536Z,16.21
2023-04-26T16:51:21.757Z,16.19
2023-04-26T16:56:14.985Z,15.85
2023-04-26T17:01:09.538Z,16.04
2023-04-26T17:06:02.713Z,15.97
2023-04-26T17:10:55.827Z,16.01
2023-04-26T17:15:49.352Z,15.92
2023-04-26T17:20:44.087Z,15.82
2023-04-26T17:25:37.470Z,15.94
2023-04-26T17:30:30.791Z,15.68
2023-04-26T17:35:24.313Z,15.71
2023-04-26T17:40:19.801Z,15.53
2023-04-26T17:45:14.139Z,15.69
2023-04-26T17:50:08.959Z,15.54
2023-04-26T17:55:02.360Z,15.27
2023-04-26T17:59:57.206Z,15.17
2023-04-26T18:04:50.541Z,14.97
2023-04-26T18:09:43.938Z,15.08
2023-04-26T18:14:44.358Z,14.94
2023-04-26T18:19:39.078Z,14.55
2023-04-26T18:24:32.278Z,14.67
2023-04-26T18:29:25.498Z,14.27
2023-04-26T18:34:18.900Z,14.43
2023-04-26T18:39:13.574Z,14.50
2023-04-26T18:44:10.709Z,14.45
2023-04-26T18:49:04.702Z,14.03
2023-04-26T18:53:57.992Z,13.93
2023-04-26T18:58:52.894Z,14.04
2023-04-26T19:03:49.506Z,13.30
2023-04-26T19:08:43.510Z,13.83
2023-04-26T19:13:36.933Z,14.05
2023-04-26T19:18:36.164Z,13.80
2023-04-26T19:23:29.544Z,13.88
2023-04-26T19:28:25.550Z,13.34
2023-04-26T19:33:19.093Z,13.65
2023-04-26T19:38:13.993Z,13.45
2023-04-26T19:43:07.271Z,13.42
2023-04-26T19:48:00.576Z,13.32
2023-04-26T19:52:54.862Z,13.23
2023-04-26T19:57:52.110Z,13.14
2023-04-26T20:02:45.625Z,13.06
2023-04-26T20:07:38.984Z,12.74
2023-04-26T20:12:32.557Z,12.90
2023-04-26T20:17:27.206Z,12.56
2023-04-26T20:22:21.146Z,12.46
2023-04-26T20:27:14.324Z,12.54
2023-04-26T20:32:07.536Z,12.11
2023-04-26T20:37:02.180Z,11.25
2023-04-26T20:41:55.930Z,12.25
2023-04-26T20:46:49.130Z,12.18
2023-04-26T20:51:42.530Z,11.84
2023-04-26T20:56:37.108Z,11.14
2023-04-26T21:01:33.892Z,12.02
2023-04-26T21:06:27.270Z,12.01
2023-04-26T21:11:20.681Z,11.97
2023-04-26T21:16:15.295Z,11.51
2023-04-26T21:21:12.276Z,11.92
2023-04-26T21:26:05.925Z,11.65
2023-04-26T21:31:18.305Z,11.87
2023-04-26T21:36:15.351Z,11.06
2023-04-26T21:41:11.668Z,11.65
2023-04-26T21:46:06.567Z,11.41
2023-04-26T21:51:05.715Z,11.66
2023-04-26T21:56:16.232Z,11.50
2023-04-26T22:01:12.314Z,11.63
2023-04-26T22:06:08.319Z,11.45
2023-04-26T22:11:02.744Z,11.37
2023-04-26T22:15:56.092Z,11.48
2023-04-26T22:20:51.270Z,11.46
2023-04-26T22:25:45.823Z,11.19
2023-04-26T22:30:39.133Z,11.01
2023-04-26T22:35:32.459Z,10.98
2023-04-26T22:40:28.869Z,10.96
2023-04-26T22:45:23.909Z,11.09
2023-04-26T22:50:17.191Z,10.83
2023-04-26T22:55:11.129Z,11.07
2023-04-26T23:00:05.772Z,11.06
2023-04-26T23:05:00.754Z,10.50
2023-04-26T23:09:54.193Z,10.88
2023-04-26T23:14:47.934Z,10.59
2023-04-26T23:19:41.338Z,10.90
2023-04-26T23:24:35.911Z,10.96
2023-04-26T23:29:29.252Z,10.33
2023-04-26T23:34:22.653Z,10.03
2023-04-26T23:39:15.971Z,10.86
2023-04-26T23:44:10.833Z,10.83
2023-04-26T23:49:04.071Z,10.80
2023-04-26T23:53:57.450Z,10.77
2023-04-26T23:58:50.771Z,9.77
